Aérodrome :
LOGIN :

S'inscrire | Disclaimer

   EN    FR    IT 

 










Légende :    VFR   VFR Marginal   IFR   IFR Intensif   IFR Très Intensif
Visi : 
Plafond : 
>= 8 km
>= 3000ft
5 à 8 km
1000 à 3000 ft
1500m à 5 km
500 à 1000 ft
800 à 1500m
200 à 500 ft
< 800m
< 200 ft
Symboles :   Orages  Brouillard  Fortes neiges  Fortes précipitations  Vent > 20 kt
SIGMETs :   Divers  Orages  Givrage  Turbulence  Onde Orograph.  Cendres Volcan.







- Altitude de l'aérodrome : 122 ft
- Code IATA : TXL


EDDT - Berlin Tegel Int.

DERNIER METAR :
  • 240950Z 06005KT 030V110 7000 BKN008 15/14 Q1022 BECMG BKN010

METARs EXPIRÉS :
  • 240920Z 07005KT 020V110 6000 BKN006 15/14 Q1022 NOSIG
  • 240850Z 07004KT 010V120 4700 -DZ BR BKN004 OVC005 15/14 Q1022 BECMG 5000 BR BKN005
  • 240820Z 05005KT 010V080 3000 -DZ BR OVC004 14/14 Q1021 BECMG 5000 BR BKN005
  • 240750Z 06005KT 010V100 2500 -DZ BR BKN003 OVC004 14/14 Q1021 BECMG 4000 BR BKN005
  • 240720Z 05005KT 010V110 2400 BR OVC003 14/14 Q1021 BECMG 5000 BR

TAF TAF EDDT
Valide du 24 à 06h jusqu'au 25 à 06h UTC


240500Z 2406/2506 35005KT 3500 -DZ OVC003
TEMPO 2406/2408 2000 DZ
PROB30
TEMPO 2406/2408 0500 FG OVC001
BECMG 2406/2408 05006KT
BECMG 2407/2410 9000 BKN009
BECMG 2411/2413 BKN020
TEMPO 2421/2502 BKN012
BECMG 2502/2504 4000 -RA BR BKN010
Pas de NOTAMs connus pour ce terrain.



MET'MAP, la Météo Aéronautique d'un coup d'oeil ! - Copyright ORBIFLY Décembre 2007 - Disclaimer

ORBIFLY MET'MAP TEAM :

Programmation & Développement : Alexandra Zaïnal
Conception & Développement : Baudouin d'Aumeries
Co-Programmation & Développement : Marc-Olivier Méhu
Soutien technique & logistique : Manuel Goepfert

Contact : metmap@orbifly.com




SOURCES & CREDITS :

   NOAA